Forside
METAR-TAF:

METAR-TAF

Lufthavne :

Newcastle Airport

Newcastle, England

Breddekreds: 55-02N, længdekreds: 001-42W, højde: 81 m

Aktuelle vejr

Denne rapport blev lavet for 37 minutter siden, kl. 13:20 UTC
Vind 4 kt fra vest, varierende mellem syd og vestnordvest
Temperatur 9°C
Fugtighed 53%
Tryk 1033 hPa
Sigt 10 km eller mere

METAR: EGNT 311320Z AUTO 27004KT 190V300 9999 OVC032/// 09/00 Q1033

Tid: 14:57 (13:57 UTC)

Vejrudsigter

Denne rapport blev lavet for 8 timer og 52 minutter siden, kl. 05:05 UTC
Foreløbig gælder fra 31 på 06 UTC til 31 på 13 UTC
Vind 4 kt fra varierende retninger
Sigt 10 km eller mere
Spredte skyer i en højde af 2000 ft
Sandsynlighed 30% :
Midlertidig
fra 31 på 06 UTC til 31 på 13 UTC
Sigt: 7000 m
Brudte skyer i en højde af 800 ft
regnbyger

TAF: EGNT 310505Z 3106/3113 VRB04KT 9999 SCT020 PROB30 TEMPO 3106/3113 7000 SHRA BKN008

Vejrobservationer og prognoser fra mere end 4000 lufthavne (METAR og TAF).

De gule og røde prikker repræsenterer de meteorologiske stationer.

Flyt musen over at se navnet på stationen.

Så klik over at se vejr observationer og prognoser.

At skifte det kort: Klik på de grønne knapper med et sort kors for at zoome ind; på den grønne knap med en bindestreg for at zoome ud; eller på de grønne pile for tilstødende kort.


METAR-TAF: